Home > Products > Valid Products > TAF

000
FTUS46 KHNX 060520
TAFFAT
TAF
KFAT 060520Z 0606/0706 VRB03KT P6SM SCT200
     FM061000 00000KT 5SM BR SCT200
      TEMPO 0613/0617 3SM BR BKN200
     FM062100 VRB03KT P6SM SCT200=



000
FTUS46 KHNX 060520
TAFMCE
TAF
KMCE 060520Z 0606/0706 02003KT P6SM SCT250
     FM060800 VRB03KT 4SM BR SCT200
     FM061000 00000KT 2SM BR BKN200
      TEMPO 0612/0616 1/2SM FG
     FM061800 33005KT 5SM BR SCT200
     FM070000 33007KT P6SM SKC=



000
FTUS46 KHNX 060520
TAFBFL
TAF
KBFL 060520Z 0606/0706 06004KT 4SM HZ SKC
     FM061000 VRB03KT 3SM BR SCT200
     FM061300 11003KT 2SM BR SCT200
     FM061700 33005KT P6SM SKC=



000
FTUS46 KHNX 052320
TAFMCE
TAF
KMCE 052320Z 0600/0624 00000KT P6SM SKC
     FM060400 VRB03KT 4SM BR SCT200
     FM061000 00000KT 2SM BR BKN200
      TEMPO 0612/0616 1/2SM FG
     FM061800 33005KT 5SM BR SCT200=



000
FTUS46 KHNX 052320
TAFBFL
TAF
KBFL 052320Z 0600/0624 35009KT P6SM SKC
     FM061000 VRB03KT 5SM BR SCT200
     FM061700 33005KT P6SM SKC=



000
FTUS46 KHNX 052320
TAFBFL
TAF
KBFL 052320Z 0600/0624 35009KT P6SM SKC
     FM061000 VRB03KT 5SM BR SCT200
     FM061700 33005KT P6SM SKC=



000
FTUS46 KHNX 052320
TAFFAT
TAF
KFAT 052320Z 0600/0624 12003KT P6SM SKC
     FM060400 VRB03KT P6SM SCT200
      TEMPO 0613/0617 3SM BR BKN200=



000
FTUS46 KHNX 052320
TAFMCE
TAF
KMCE 052320Z 0600/0624 00000KT P6SM SKC
     FM060400 VRB03KT 4SM BR SCT200
     FM061000 00000KT 2SM BR BKN200
      TEMPO 0612/0616 1/2SM FG
     FM061800 33005KT 5SM BR SCT200=



000
FTUS46 KHNX 052320
TAFFAT
TAF
KFAT 052320Z 0600/0624 12003KT P6SM SKC
     FM060400 VRB03KT P6SM SCT200
      TEMPO 0613/0617 3SM BR BKN200=



000
FTUS46 KHNX 051735
TAFFAT
TAF
KFAT 051735Z 0518/0618 00000KT P6SM SKC
     FM060400 VRB03KT P6SM SCT200
      TEMPO 0613/0617 3SM BR BKN200=



000
FTUS46 KHNX 051735
TAFMCE
TAF
KMCE 051735Z 0518/0618 00000KT P6SM SKC
     FM060400 VRB03KT 4SM BR SCT200
     FM061000 00000KT 2SM BR BKN200
      TEMPO 0612/0616 1/2SM FG=



000
FTUS46 KHNX 051735
TAFBFL
TAF
KBFL 051735Z 0518/0618 11003KT P6SM SKC
     FM061000 VRB03KT 5SM BR SCT200=



000
FTUS46 KHNX 051647 AAA
TAFMCE
TAF AMD
KMCE 051647Z 0517/0612 00000KT 4SM BR SKC
     FM052000 VRB03KT P6SM SKC=



000
FTUS46 KHNX 051319 AAA
TAFFAT
TAF AMD
KFAT 051319Z 0513/0612 VRB02KT P6SM SCT200
     FM051800 VRB03KT 4SM HZ SCT200
     FM052000 VRB03KT P6SM SKC=



000
FTUS46 KHNX 051120
TAFBFL
TAF
KBFL 051120Z 0512/0612 VRB04KT P6SM SCT200=



000
FTUS46 KHNX 051120
TAFMCE
TAF
KMCE 051120Z 0512/0612 VRB02KT 1SM BR SCT200
      TEMPO 0513/0517 1/2SM FG VV002
     FM051800 VRB03KT 4SM HZ SCT200
     FM052000 VRB03KT P6SM SKC=



000
FTUS46 KHNX 051120
TAFFAT
TAF
KFAT 051120Z 0512/0612 VRB02KT P6SM SCT200
      TEMPO 0513/0517 1SM BR
     FM051800 VRB03KT 4SM HZ SCT200
     FM052000 VRB03KT P6SM SKC=



000
FTUS46 KHNX 051120
TAFBFL
TAF
KBFL 051120Z 0512/0612 VRB04KT P6SM SCT200=



000
FTUS46 KHNX 051120
TAFMCE
TAF
KMCE 051120Z 0512/0612 VRB02KT 1SM BR SCT200
      TEMPO 0513/0517 1/2SM FG VV002
     FM051800 VRB03KT 4SM HZ SCT200
     FM052000 VRB03KT P6SM SKC=



000
FTUS46 KHNX 051120
TAFFAT
TAF
KFAT 051120Z 0512/0612 VRB02KT P6SM SCT200
      TEMPO 0513/0517 1SM BR
     FM051800 VRB03KT 4SM HZ SCT200
     FM052000 VRB03KT P6SM SKC=



000
FTUS46 KHNX 050541
TAFMCE
TAF
KMCE 050541Z 0506/0606 VRB03KT P6SM SCT200
     FM050900 VRB02KT 4SM BR SCT200
     FM051200 VRB02KT 1SM BR SCT200
      TEMPO 0513/0517 1/2SM FG VV002
     FM051800 VRB03KT 4SM HZ SCT200
     FM052000 VRB03KT P6SM SKC=



000
FTUS46 KHNX 050541
TAFFAT
TAF
KFAT 050541Z 0506/0606 VRB02KT P6SM SCT200
     FM050900 VRB02KT 4SM BR SCT200
      TEMPO 0513/0517 2SM BR
     FM051800 VRB03KT 4SM HZ SCT200
     FM052000 VRB03KT P6SM SKC=



000
FTUS46 KHNX 050541
TAFBFL
TAF
KBFL 050541Z 0506/0606 VRB04KT P6SM SCT200=



000
FTUS46 KHNX 050541
TAFMCE
TAF
KMCE 050541Z 0506/0606 VRB03KT P6SM SCT200
     FM050900 VRB02KT 4SM BR SCT200
     FM051200 VRB02KT 1SM BR SCT200
      TEMPO 0513/0517 1/2SM FG VV002
     FM051800 VRB03KT 4SM HZ SCT200
     FM052000 VRB03KT P6SM SKC=



000
FTUS46 KHNX 050541
TAFBFL
TAF
KBFL 050541Z 0506/0606 VRB04KT P6SM SCT200=



000
FTUS46 KHNX 050541
TAFFAT
TAF
KFAT 050541Z 0506/0606 VRB02KT P6SM SCT200
     FM050900 VRB02KT 4SM BR SCT200
      TEMPO 0513/0517 2SM BR
     FM051800 VRB03KT 4SM HZ SCT200
     FM052000 VRB03KT P6SM SKC=



000
FTUS46 KHNX 042321
TAFFAT
TAF
KFAT 042321Z 0500/0524 VRB04KT P6SM SCT200
     FM050900 VRB03KT 4SM BR SCT200
      TEMPO 0513/0517 2SM BR
     FM051800 VRB03KT 4SM HZ SCT200
     FM052000 VRB03KT P6SM SKC=



000
FTUS46 KHNX 042321
TAFMCE
TAF
KMCE 042321Z 0500/0524 VRB03KT P6SM SCT200
     FM050600 VRB02KT 4SM BR SCT200
     FM051200 VRB02KT 1SM BR SCT200
      TEMPO 0513/0517 1/2SM FG VV002
     FM051800 VRB03KT 4SM HZ SCT200
     FM052000 VRB03KT P6SM SKC=



000
FTUS46 KHNX 042321
TAFBFL
TAF
KBFL 042321Z 0500/0524 VRB04KT P6SM SCT200=



000
FTUS46 KHNX 042321
TAFFAT
TAF
KFAT 042321Z 0500/0524 VRB04KT P6SM SCT200
     FM050900 VRB03KT 4SM BR SCT200
      TEMPO 0513/0517 2SM BR
     FM051800 VRB03KT 4SM HZ SCT200
     FM052000 VRB03KT P6SM SKC=



000
FTUS46 KHNX 042321
TAFMCE
TAF
KMCE 042321Z 0500/0524 VRB03KT P6SM SCT200
     FM050600 VRB02KT 4SM BR SCT200
     FM051200 VRB02KT 1SM BR SCT200
      TEMPO 0513/0517 1/2SM FG VV002
     FM051800 VRB03KT 4SM HZ SCT200
     FM052000 VRB03KT P6SM SKC=



000
FTUS46 KHNX 042321
TAFBFL
TAF
KBFL 042321Z 0500/0524 VRB04KT P6SM SCT200=



000
FTUS46 KHNX 041720
TAFMCE
TAF
KMCE 041720Z 0418/0518 00000KT 4SM BR SCT007
      TEMPO 0418/0419 BKN007
     FM041900 VRB03KT P6SM SCT200
     FM050600 VRB02KT 4SM BR SCT200
     FM051200 VRB02KT 1SM BR SCT200
      TEMPO 0513/0517 1/2SM FG VV002=



000
FTUS46 KHNX 041720
TAFBFL
TAF
KBFL 041720Z 0418/0518 VRB04KT P6SM SCT200=



000
FTUS46 KHNX 041720
TAFFAT
TAF
KFAT 041720Z 0418/0518 VRB04KT P6SM SCT200
     FM050900 VRB03KT 4SM BR SCT200
      TEMPO 0513/0517 2SM BR=



000
FTUS46 KHNX 041602 AAA
TAFMCE
TAF AMD
KMCE 041602Z 0416/0512 00000KT 2SM BR SCT200
      TEMPO 0416/0417 1/2SM FG VV002
     FM041800 VRB04KT P6SM SCT200
     FM050600 VRB03KT 4SM BR SCT200=



000
FTUS46 KHNX 041121
TAFMCE
TAF
KMCE 041121Z 0412/0512 00000KT 4SM BR SCT200
      TEMPO 0412/0416 2SM BR BKN005
     FM041800 VRB04KT P6SM SCT200
     FM050600 VRB03KT 4SM BR SCT200=



000
FTUS46 KHNX 041121
TAFBFL
TAF
KBFL 041121Z 0412/0512 VRB03KT P6SM SCT200=



000
FTUS46 KHNX 041121
TAFFAT
TAF
KFAT 041121Z 0412/0512 VRB04KT P6SM SCT200
     FM050600 VRB03KT 4SM BR SCT200=



000
FTUS46 KHNX 040533
TAFBFL
TAF
KBFL 040533Z 0406/0506 VRB04KT P6SM FEW200=



000
FTUS46 KHNX 040533
TAFMCE
TAF
KMCE 040533Z 0406/0506 VRB02KT P6SM SCT150
     FM041200 00000KT 4SM HZ SKC
      TEMPO 0412/0416 2SM BR BKN005
     FM041800 VRB04KT P6SM FEW200=



000
FTUS46 KHNX 040533
TAFFAT
TAF
KFAT 040533Z 0406/0506 VRB03KT P6SM SCT150
     FM041200 VRB02KT 4SM BR SKC
     FM041800 VRB04KT P6SM FEW200=



000
FTUS46 KHNX 040015 RRA
TAFMCE
TAF
KMCE 040015Z 0400/0424 VRB04KT P6SM FEW200
     FM040400 VRB03KT 4SM HZ SCT050
      TEMPO 0412/0416 2SM BR OVC005
     FM042000 VRB04KT P6SM SCT250=



000
FTUS46 KHNX 040015 RRA
TAFFAT
TAF
KFAT 040015Z 0400/0424 VRB04KT P6SM FEW200
     FM041200 VRB02KT 4SM BR FEW050
     FM041600 VRB03KT 5SM BR SKC
     FM041800 VRB04KT P6SM SCT250=



000
FTUS46 KHNX 040015 RRA
TAFBFL
TAF
KBFL 040015Z 0400/0424 VRB05KT P6SM FEW250=



000
FTUS46 KHNX 040015 RRA
TAFBFL
TAF
KBFL 040015Z 0400/0424 VRB05KT P6SM FEW250=



000
FTUS46 KHNX 040015 RRA
TAFFAT
TAF
KFAT 040015Z 0400/0424 VRB04KT P6SM FEW200
     FM041200 VRB02KT 4SM BR FEW050
     FM041600 VRB03KT 5SM BR SKC
     FM041800 VRB04KT P6SM SCT250=



000
FTUS46 KHNX 040015 RRA
TAFMCE
TAF
KMCE 040015Z 0400/0424 VRB04KT P6SM FEW200
     FM040400 VRB03KT 4SM HZ SCT050
      TEMPO 0412/0416 2SM BR OVC005
     FM042000 VRB04KT P6SM SCT250=



000
FTUS46 KHNX 031744
TAFBFL
TAF
KBFL 031744Z 0318/0418 VRB05KT P6SM SKC=



000
FTUS46 KHNX 031744
TAFFAT
TAF
KFAT 031744Z 0318/0418 VRB04KT P6SM FEW200
     FM041200 VRB02KT 4SM BR FEW050
     FM041600 VRB03KT 5SM BR SKC=



000
FTUS46 KHNX 031744
TAFMCE
TAF
KMCE 031744Z 0318/0418 VRB04KT P6SM FEW200
     FM040400 VRB03KT 4SM HZ SCT050
      TEMPO 0412/0416 2SM BR OVC005=



000
FTUS46 KHNX 031744
TAFBFL
TAF
KBFL 031744Z 0318/0418 VRB05KT P6SM SKC=



000
FTUS46 KHNX 031136
TAFBFL
TAF
KBFL 031136Z 0312/0412 VRB03KT P6SM SKC
     FM031800 VRB03KT P6SM SCT120
     FM040300 VRB03KT P6SM BKN100=



000
FTUS46 KHNX 031136
TAFMCE
TAF
KMCE 031136Z 0312/0412 VRB03KT P6SM FEW200
      TEMPO 0312/0315 4SM BR
     FM031900 14004KT P6SM BKN100
     FM040600 VRB03KT P6SM BKN070=



000
FTUS46 KHNX 031136
TAFFAT
TAF
KFAT 031136Z 0312/0412 VRB03KT P6SM SKC
      TEMPO 0313/0317 5SM BR
     FM031900 VRB03KT P6SM BKN120
     FM040000 VRB03KT P6SM BKN100=



000
FTUS46 KHNX 031136
TAFBFL
TAF
KBFL 031136Z 0312/0412 VRB03KT P6SM SKC
     FM031800 VRB03KT P6SM SCT120
     FM040300 VRB03KT P6SM BKN100=



000
FTUS46 KHNX 031136
TAFMCE
TAF
KMCE 031136Z 0312/0412 VRB03KT P6SM FEW200
      TEMPO 0312/0315 4SM BR
     FM031900 14004KT P6SM BKN100
     FM040600 VRB03KT P6SM BKN070=



000
FTUS46 KHNX 031136
TAFFAT
TAF
KFAT 031136Z 0312/0412 VRB03KT P6SM SKC
      TEMPO 0313/0317 5SM BR
     FM031900 VRB03KT P6SM BKN120
     FM040000 VRB03KT P6SM BKN100=



    US Dept of Commerce
    National Oceanic and Atmospheric Administration
    National Weather Service
    1325 East West Highway
    Silver Spring, MD 20910
    Page Author: NWS Internet Services Team
Disclaimer
Information Quality
Credits
Glossary
Privacy Policy
Freedom of Information Act (FOIA)
About Us
Career Opportunities